sensor_id;sensor_type;location;lat;lon;timestamp;P1;durP1;ratioP1;P2;durP2;ratioP2
11957;SDS011;6039;52.576;13.348;2022-09-09T00:01:25;10.43;;;7.70;;
11957;SDS011;6039;52.576;13.348;2022-09-09T00:06:42;9.17;;;8.10;;
11957;SDS011;6039;52.576;13.348;2022-09-09T00:11:47;8.43;;;7.50;;
11957;SDS011;6039;52.576;13.348;2022-09-09T00:16:53;11.90;;;7.60;;
11957;SDS011;6039;52.576;13.348;2022-09-09T00:22:02;8.37;;;7.57;;
11957;SDS011;6039;52.576;13.348;2022-09-09T00:27:19;10.07;;;7.83;;
11957;SDS011;6039;52.576;13.348;2022-09-09T00:32:29;8.07;;;7.37;;
11957;SDS011;6039;52.576;13.348;2022-09-09T00:37:32;9.83;;;7.80;;
11957;SDS011;6039;52.576;13.348;2022-09-09T00:42:38;8.30;;;7.50;;
11957;SDS011;6039;52.576;13.348;2022-09-09T00:47:43;8.73;;;7.60;;
11957;SDS011;6039;52.576;13.348;2022-09-09T00:52:47;8.10;;;7.40;;
11957;SDS011;6039;52.576;13.348;2022-09-09T00:57:57;11.40;;;8.13;;
11957;SDS011;6039;52.576;13.348;2022-09-09T01:03:08;8.50;;;7.70;;
11957;SDS011;6039;52.576;13.348;2022-09-09T01:08:29;8.60;;;7.80;;
11957;SDS011;6039;52.576;13.348;2022-09-09T01:13:40;8.97;;;8.07;;
11957;SDS011;6039;52.576;13.348;2022-09-09T01:18:46;10.43;;;8.73;;
11957;SDS011;6039;52.576;13.348;2022-09-09T01:23:56;9.53;;;8.63;;
11957;SDS011;6039;52.576;13.348;2022-09-09T01:29:13;10.50;;;9.50;;
11957;SDS011;6039;52.576;13.348;2022-09-09T01:34:16;11.33;;;10.23;;
11957;SDS011;6039;52.576;13.348;2022-09-09T01:39:19;13.47;;;11.07;;
11957;SDS011;6039;52.576;13.348;2022-09-09T01:44:23;13.70;;;11.50;;
11957;SDS011;6039;52.576;13.348;2022-09-09T01:49:26;12.00;;;10.80;;
11957;SDS011;6039;52.576;13.348;2022-09-09T01:54:29;11.10;;;10.00;;
11957;SDS011;6039;52.576;13.348;2022-09-09T01:59:39;11.47;;;10.27;;
11957;SDS011;6039;52.576;13.348;2022-09-09T02:05:00;12.47;;;11.23;;
11957;SDS011;6039;52.576;13.348;2022-09-09T02:10:09;11.60;;;10.50;;
11957;SDS011;6039;52.576;13.348;2022-09-09T02:15:15;18.33;;;11.13;;
11957;SDS011;6039;52.576;13.348;2022-09-09T02:20:21;11.47;;;10.27;;
11957;SDS011;6039;52.576;13.348;2022-09-09T02:25:28;11.33;;;10.13;;
11957;SDS011;6039;52.576;13.348;2022-09-09T02:30:32;11.13;;;10.03;;
11957;SDS011;6039;52.576;13.348;2022-09-09T02:35:35;11.40;;;10.27;;
11957;SDS011;6039;52.576;13.348;2022-09-09T02:40:38;12.30;;;11.00;;
11957;SDS011;6039;52.576;13.348;2022-09-09T02:45:43;12.63;;;10.83;;
11957;SDS011;6039;52.576;13.348;2022-09-09T02:50:50;12.90;;;10.70;;
11957;SDS011;6039;52.576;13.348;2022-09-09T02:55:57;14.63;;;11.20;;
11957;SDS011;6039;52.576;13.348;2022-09-09T03:01:03;13.73;;;10.57;;
11957;SDS011;6039;52.576;13.348;2022-09-09T03:06:05;11.53;;;10.33;;
11957;SDS011;6039;52.576;13.348;2022-09-09T03:11:07;12.63;;;11.23;;
11957;SDS011;6039;52.576;13.348;2022-09-09T03:16:11;13.97;;;11.77;;
11957;SDS011;6039;52.576;13.348;2022-09-09T03:21:15;14.43;;;10.90;;
11957;SDS011;6039;52.576;13.348;2022-09-09T03:26:17;13.10;;;11.10;;
11957;SDS011;6039;52.576;13.348;2022-09-09T03:31:21;16.13;;;11.07;;
11957;SDS011;6039;52.576;13.348;2022-09-09T03:36:24;11.37;;;10.27;;
11957;SDS011;6039;52.576;13.348;2022-09-09T03:41:28;11.47;;;10.17;;
11957;SDS011;6039;52.576;13.348;2022-09-09T03:46:32;10.30;;;9.30;;
11957;SDS011;6039;52.576;13.348;2022-09-09T03:51:34;12.73;;;9.80;;
11957;SDS011;6039;52.576;13.348;2022-09-09T03:56:38;9.77;;;8.77;;
11957;SDS011;6039;52.576;13.348;2022-09-09T04:01:43;9.93;;;8.93;;
11957;SDS011;6039;52.576;13.348;2022-09-09T04:06:47;10.37;;;9.20;;
11957;SDS011;6039;52.576;13.348;2022-09-09T04:11:51;9.90;;;8.70;;
11957;SDS011;6039;52.576;13.348;2022-09-09T04:16:56;11.63;;;9.17;;
11957;SDS011;6039;52.576;13.348;2022-09-09T04:21:59;12.03;;;8.37;;
11957;SDS011;6039;52.576;13.348;2022-09-09T04:27:01;10.50;;;8.67;;
11957;SDS011;6039;52.576;13.348;2022-09-09T04:32:05;11.53;;;8.10;;
11957;SDS011;6039;52.576;13.348;2022-09-09T04:37:08;11.70;;;8.40;;
11957;SDS011;6039;52.576;13.348;2022-09-09T04:42:10;11.27;;;7.43;;
11957;SDS011;6039;52.576;13.348;2022-09-09T04:47:14;8.83;;;7.23;;
11957;SDS011;6039;52.576;13.348;2022-09-09T04:52:16;10.97;;;7.53;;
11957;SDS011;6039;52.576;13.348;2022-09-09T04:57:19;15.53;;;8.80;;
11957;SDS011;6039;52.576;13.348;2022-09-09T05:02:23;11.80;;;7.60;;
11957;SDS011;6039;52.576;13.348;2022-09-09T05:07:26;11.67;;;7.60;;
11957;SDS011;6039;52.576;13.348;2022-09-09T05:12:29;9.13;;;7.37;;
11957;SDS011;6039;52.576;13.348;2022-09-09T05:17:33;10.33;;;7.20;;
11957;SDS011;6039;52.576;13.348;2022-09-09T05:22:38;10.30;;;7.80;;
11957;SDS011;6039;52.576;13.348;2022-09-09T05:27:41;12.20;;;7.47;;
11957;SDS011;6039;52.576;13.348;2022-09-09T05:32:45;12.20;;;7.00;;
11957;SDS011;6039;52.576;13.348;2022-09-09T05:37:48;8.53;;;5.53;;
11957;SDS011;6039;52.576;13.348;2022-09-09T05:42:51;7.60;;;5.73;;
11957;SDS011;6039;52.576;13.348;2022-09-09T05:47:54;8.30;;;5.97;;
11957;SDS011;6039;52.576;13.348;2022-09-09T05:52:57;9.00;;;6.53;;
11957;SDS011;6039;52.576;13.348;2022-09-09T05:57:59;7.33;;;5.73;;
11957;SDS011;6039;52.576;13.348;2022-09-09T06:03:04;7.87;;;6.60;;
11957;SDS011;6039;52.576;13.348;2022-09-09T06:08:06;9.30;;;5.97;;
11957;SDS011;6039;52.576;13.348;2022-09-09T06:13:08;7.10;;;6.33;;
11957;SDS011;6039;52.576;13.348;2022-09-09T06:18:12;12.60;;;5.77;;
11957;SDS011;6039;52.576;13.348;2022-09-09T06:23:17;8.83;;;5.20;;
11957;SDS011;6039;52.576;13.348;2022-09-09T06:28:20;9.47;;;5.10;;
11957;SDS011;6039;52.576;13.348;2022-09-09T06:33:24;7.57;;;4.50;;
11957;SDS011;6039;52.576;13.348;2022-09-09T06:38:27;5.97;;;4.47;;
11957;SDS011;6039;52.576;13.348;2022-09-09T06:43:30;10.13;;;4.20;;
11957;SDS011;6039;52.576;13.348;2022-09-09T06:48:34;7.10;;;3.80;;
11957;SDS011;6039;52.576;13.348;2022-09-09T06:53:37;6.67;;;3.50;;
11957;SDS011;6039;52.576;13.348;2022-09-09T06:58:40;7.67;;;3.80;;
11957;SDS011;6039;52.576;13.348;2022-09-09T07:03:46;9.60;;;4.30;;
11957;SDS011;6039;52.576;13.348;2022-09-09T07:08:50;3.23;;;2.93;;
11957;SDS011;6039;52.576;13.348;2022-09-09T07:13:54;5.07;;;2.87;;
11957;SDS011;6039;52.576;13.348;2022-09-09T07:18:59;6.77;;;2.70;;
11957;SDS011;6039;52.576;13.348;2022-09-09T07:24:02;4.87;;;2.70;;
11957;SDS011;6039;52.576;13.348;2022-09-09T07:29:07;8.00;;;2.67;;
11957;SDS011;6039;52.576;13.348;2022-09-09T07:34:15;4.03;;;2.50;;
11957;SDS011;6039;52.576;13.348;2022-09-09T07:39:17;6.07;;;2.53;;
11957;SDS011;6039;52.576;13.348;2022-09-09T07:44:20;4.07;;;2.63;;
11957;SDS011;6039;52.576;13.348;2022-09-09T07:49:26;4.97;;;2.10;;
11957;SDS011;6039;52.576;13.348;2022-09-09T07:54:28;5.10;;;2.70;;
11957;SDS011;6039;52.576;13.348;2022-09-09T07:59:32;4.03;;;2.23;;
11957;SDS011;6039;52.576;13.348;2022-09-09T08:04:36;6.40;;;2.50;;
11957;SDS011;6039;52.576;13.348;2022-09-09T08:09:39;5.87;;;2.20;;
11957;SDS011;6039;52.576;13.348;2022-09-09T08:14:41;5.80;;;2.20;;
11957;SDS011;6039;52.576;13.348;2022-09-09T08:19:45;5.10;;;2.33;;
11957;SDS011;6039;52.576;13.348;2022-09-09T08:24:47;3.73;;;2.00;;
11957;SDS011;6039;52.576;13.348;2022-09-09T08:29:50;4.63;;;2.13;;
11957;SDS011;6039;52.576;13.348;2022-09-09T08:34:54;6.57;;;2.17;;
11957;SDS011;6039;52.576;13.348;2022-09-09T08:39:57;2.83;;;1.90;;
11957;SDS011;6039;52.576;13.348;2022-09-09T08:50:28;4.00;;;2.00;;
11957;SDS011;6039;52.576;13.348;2022-09-09T08:55:36;2.70;;;1.60;;
11957;SDS011;6039;52.576;13.348;2022-09-09T09:00:44;3.33;;;1.80;;
11957;SDS011;6039;52.576;13.348;2022-09-09T09:06:04;7.57;;;2.00;;
11957;SDS011;6039;52.576;13.348;2022-09-09T09:11:11;4.70;;;2.10;;
11957;SDS011;6039;52.576;13.348;2022-09-09T09:16:17;4.97;;;2.10;;
11957;SDS011;6039;52.576;13.348;2022-09-09T09:21:32;6.43;;;2.07;;
11957;SDS011;6039;52.576;13.348;2022-09-09T09:26:37;6.00;;;1.77;;
11957;SDS011;6039;52.576;13.348;2022-09-09T09:31:41;4.03;;;1.93;;
11957;SDS011;6039;52.576;13.348;2022-09-09T09:36:54;3.93;;;2.10;;
11957;SDS011;6039;52.576;13.348;2022-09-09T09:41:57;8.93;;;2.00;;
11957;SDS011;6039;52.576;13.348;2022-09-09T09:47:07;3.47;;;1.90;;
11957;SDS011;6039;52.576;13.348;2022-09-09T09:52:13;3.07;;;1.87;;
11957;SDS011;6039;52.576;13.348;2022-09-09T09:57:22;4.97;;;1.83;;
11957;SDS011;6039;52.576;13.348;2022-09-09T10:02:31;6.43;;;2.00;;
11957;SDS011;6039;52.576;13.348;2022-09-09T10:07:41;4.57;;;1.77;;
11957;SDS011;6039;52.576;13.348;2022-09-09T10:12:49;6.73;;;1.90;;
11957;SDS011;6039;52.576;13.348;2022-09-09T10:18:00;11.82;;;2.25;;
11957;SDS011;6039;52.576;13.348;2022-09-09T10:23:19;6.20;;;2.00;;
11957;SDS011;6039;52.576;13.348;2022-09-09T10:28:34;2.80;;;1.70;;
11957;SDS011;6039;52.576;13.348;2022-09-09T10:33:56;4.47;;;2.00;;
11957;SDS011;6039;52.576;13.348;2022-09-09T10:39:03;3.67;;;1.60;;
11957;SDS011;6039;52.576;13.348;2022-09-09T10:44:14;3.83;;;1.48;;
11957;SDS011;6039;52.576;13.348;2022-09-09T10:49:34;4.25;;;2.03;;
11957;SDS011;6039;52.576;13.348;2022-09-09T10:54:58;3.13;;;1.80;;
11957;SDS011;6039;52.576;13.348;2022-09-09T11:00:05;3.80;;;1.83;;
11957;SDS011;6039;52.576;13.348;2022-09-09T11:05:10;4.50;;;1.73;;
11957;SDS011;6039;52.576;13.348;2022-09-09T11:10:22;6.65;;;1.73;;
11957;SDS011;6039;52.576;13.348;2022-09-09T11:15:28;4.43;;;1.90;;
11957;SDS011;6039;52.576;13.348;2022-09-09T11:20:33;4.60;;;1.50;;
11957;SDS011;6039;52.576;13.348;2022-09-09T11:25:38;5.47;;;1.60;;
11957;SDS011;6039;52.576;13.348;2022-09-09T11:30:45;2.03;;;1.43;;
11957;SDS011;6039;52.576;13.348;2022-09-09T11:36:00;3.23;;;1.70;;
11957;SDS011;6039;52.576;13.348;2022-09-09T11:41:16;2.40;;;1.40;;
11957;SDS011;6039;52.576;13.348;2022-09-09T11:46:22;3.90;;;1.60;;
11957;SDS011;6039;52.576;13.348;2022-09-09T11:51:35;4.30;;;1.50;;
11957;SDS011;6039;52.576;13.348;2022-09-09T11:56:43;4.13;;;1.77;;
11957;SDS011;6039;52.576;13.348;2022-09-09T12:01:48;4.73;;;1.30;;
11957;SDS011;6039;52.576;13.348;2022-09-09T12:06:56;2.37;;;1.10;;
11957;SDS011;6039;52.576;13.348;2022-09-09T12:12:17;4.03;;;1.30;;
11957;SDS011;6039;52.576;13.348;2022-09-09T12:17:25;3.10;;;1.60;;
11957;SDS011;6039;52.576;13.348;2022-09-09T12:22:30;3.87;;;1.40;;
11957;SDS011;6039;52.576;13.348;2022-09-09T12:27:40;4.97;;;1.50;;
11957;SDS011;6039;52.576;13.348;2022-09-09T12:32:45;4.70;;;1.50;;
11957;SDS011;6039;52.576;13.348;2022-09-09T12:37:49;6.30;;;1.63;;
11957;SDS011;6039;52.576;13.348;2022-09-09T12:42:55;4.30;;;1.37;;
11957;SDS011;6039;52.576;13.348;2022-09-09T12:47:59;3.40;;;1.80;;
11957;SDS011;6039;52.576;13.348;2022-09-09T12:53:03;4.37;;;1.50;;
11957;SDS011;6039;52.576;13.348;2022-09-09T12:58:12;2.53;;;1.30;;
11957;SDS011;6039;52.576;13.348;2022-09-09T13:03:16;3.70;;;1.50;;
11957;SDS011;6039;52.576;13.348;2022-09-09T13:08:31;3.20;;;1.40;;
11957;SDS011;6039;52.576;13.348;2022-09-09T13:13:42;4.40;;;1.70;;
11957;SDS011;6039;52.576;13.348;2022-09-09T13:18:45;4.60;;;1.53;;
11957;SDS011;6039;52.576;13.348;2022-09-09T13:23:52;2.77;;;1.50;;
11957;SDS011;6039;52.576;13.348;2022-09-09T13:29:16;3.80;;;1.20;;
11957;SDS011;6039;52.576;13.348;2022-09-09T13:34:26;4.63;;;1.50;;
11957;SDS011;6039;52.576;13.348;2022-09-09T13:39:38;4.97;;;1.70;;
11957;SDS011;6039;52.576;13.348;2022-09-09T13:44:45;2.93;;;1.57;;
11957;SDS011;6039;52.576;13.348;2022-09-09T13:49:48;2.27;;;1.60;;
11957;SDS011;6039;52.576;13.348;2022-09-09T13:54:51;2.23;;;1.30;;
11957;SDS011;6039;52.576;13.348;2022-09-09T13:59:59;4.50;;;1.40;;
11957;SDS011;6039;52.576;13.348;2022-09-09T14:05:02;5.07;;;1.57;;
11957;SDS011;6039;52.576;13.348;2022-09-09T14:10:06;3.07;;;1.47;;
11957;SDS011;6039;52.576;13.348;2022-09-09T14:15:11;3.63;;;1.40;;
11957;SDS011;6039;52.576;13.348;2022-09-09T14:20:16;4.37;;;1.40;;
11957;SDS011;6039;52.576;13.348;2022-09-09T14:25:19;2.37;;;1.20;;
11957;SDS011;6039;52.576;13.348;2022-09-09T14:30:25;3.47;;;1.70;;
11957;SDS011;6039;52.576;13.348;2022-09-09T14:35:28;2.80;;;1.50;;
11957;SDS011;6039;52.576;13.348;2022-09-09T14:40:31;1.87;;;1.20;;
11957;SDS011;6039;52.576;13.348;2022-09-09T14:45:37;5.37;;;1.60;;
11957;SDS011;6039;52.576;13.348;2022-09-09T14:50:40;5.03;;;1.47;;
11957;SDS011;6039;52.576;13.348;2022-09-09T14:55:46;3.33;;;1.63;;
11957;SDS011;6039;52.576;13.348;2022-09-09T15:00:51;2.67;;;1.40;;
11957;SDS011;6039;52.576;13.348;2022-09-09T15:05:57;4.00;;;1.80;;
11957;SDS011;6039;52.576;13.348;2022-09-09T15:11:11;3.40;;;1.63;;
11957;SDS011;6039;52.576;13.348;2022-09-09T15:16:16;3.90;;;1.60;;
11957;SDS011;6039;52.576;13.348;2022-09-09T15:21:20;4.30;;;1.50;;
11957;SDS011;6039;52.576;13.348;2022-09-09T15:26:29;4.23;;;1.53;;
11957;SDS011;6039;52.576;13.348;2022-09-09T15:31:41;3.43;;;1.60;;
11957;SDS011;6039;52.576;13.348;2022-09-09T15:36:44;3.03;;;1.40;;
11957;SDS011;6039;52.576;13.348;2022-09-09T15:41:47;3.13;;;1.47;;
11957;SDS011;6039;52.576;13.348;2022-09-09T15:46:52;3.00;;;1.87;;
11957;SDS011;6039;52.576;13.348;2022-09-09T15:51:55;2.80;;;1.50;;
11957;SDS011;6039;52.576;13.348;2022-09-09T15:57:02;3.20;;;1.80;;
11957;SDS011;6039;52.576;13.348;2022-09-09T16:02:08;6.13;;;2.80;;
11957;SDS011;6039;52.576;13.348;2022-09-09T16:07:13;7.63;;;2.00;;
11957;SDS011;6039;52.576;13.348;2022-09-09T16:12:15;5.20;;;1.80;;
11957;SDS011;6039;52.576;13.348;2022-09-09T16:17:20;6.30;;;1.77;;
11957;SDS011;6039;52.576;13.348;2022-09-09T16:22:22;7.33;;;1.80;;
11957;SDS011;6039;52.576;13.348;2022-09-09T16:27:25;3.80;;;1.90;;
11957;SDS011;6039;52.576;13.348;2022-09-09T16:32:29;5.77;;;2.60;;
11957;SDS011;6039;52.576;13.348;2022-09-09T16:37:31;8.00;;;2.73;;
11957;SDS011;6039;52.576;13.348;2022-09-09T16:42:34;4.23;;;2.70;;
11957;SDS011;6039;52.576;13.348;2022-09-09T16:47:37;6.80;;;2.60;;
11957;SDS011;6039;52.576;13.348;2022-09-09T16:52:40;7.33;;;2.90;;
11957;SDS011;6039;52.576;13.348;2022-09-09T16:57:46;5.33;;;2.37;;
11957;SDS011;6039;52.576;13.348;2022-09-09T17:02:50;7.00;;;2.40;;
11957;SDS011;6039;52.576;13.348;2022-09-09T17:07:53;8.80;;;2.10;;
11957;SDS011;6039;52.576;13.348;2022-09-09T17:12:57;7.67;;;2.50;;
11957;SDS011;6039;52.576;13.348;2022-09-09T17:18:01;6.40;;;2.90;;
11957;SDS011;6039;52.576;13.348;2022-09-09T17:23:03;6.47;;;3.00;;
11957;SDS011;6039;52.576;13.348;2022-09-09T17:28:06;8.57;;;2.80;;
11957;SDS011;6039;52.576;13.348;2022-09-09T17:33:10;4.87;;;2.97;;
11957;SDS011;6039;52.576;13.348;2022-09-09T17:38:12;5.50;;;3.50;;
11957;SDS011;6039;52.576;13.348;2022-09-09T17:43:15;6.27;;;3.43;;
11957;SDS011;6039;52.576;13.348;2022-09-09T17:48:20;6.40;;;3.23;;
11957;SDS011;6039;52.576;13.348;2022-09-09T17:53:22;6.83;;;3.07;;
11957;SDS011;6039;52.576;13.348;2022-09-09T17:58:25;6.53;;;2.77;;
11957;SDS011;6039;52.576;13.348;2022-09-09T18:03:29;5.60;;;2.50;;
11957;SDS011;6039;52.576;13.348;2022-09-09T18:08:31;3.77;;;2.20;;
11957;SDS011;6039;52.576;13.348;2022-09-09T18:13:37;3.90;;;2.70;;
11957;SDS011;6039;52.576;13.348;2022-09-09T18:18:41;5.13;;;2.50;;
11957;SDS011;6039;52.576;13.348;2022-09-09T18:23:44;3.87;;;2.60;;
11957;SDS011;6039;52.576;13.348;2022-09-09T18:28:49;6.10;;;3.20;;
11957;SDS011;6039;52.576;13.348;2022-09-09T18:33:54;5.63;;;3.13;;
11957;SDS011;6039;52.576;13.348;2022-09-09T18:38:57;7.43;;;2.90;;
11957;SDS011;6039;52.576;13.348;2022-09-09T18:44:03;7.00;;;3.00;;
11957;SDS011;6039;52.576;13.348;2022-09-09T18:49:08;5.50;;;2.93;;
11957;SDS011;6039;52.576;13.348;2022-09-09T18:54:13;4.93;;;2.83;;
11957;SDS011;6039;52.576;13.348;2022-09-09T18:59:16;3.17;;;2.30;;
11957;SDS011;6039;52.576;13.348;2022-09-09T19:04:22;4.90;;;2.50;;
11957;SDS011;6039;52.576;13.348;2022-09-09T19:09:27;8.00;;;2.63;;
11957;SDS011;6039;52.576;13.348;2022-09-09T19:14:31;4.80;;;2.13;;
11957;SDS011;6039;52.576;13.348;2022-09-09T19:19:35;4.67;;;2.20;;
11957;SDS011;6039;52.576;13.348;2022-09-09T19:24:37;5.77;;;2.47;;
11957;SDS011;6039;52.576;13.348;2022-09-09T19:29:40;3.73;;;2.70;;
11957;SDS011;6039;52.576;13.348;2022-09-09T19:34:45;4.63;;;2.80;;
11957;SDS011;6039;52.576;13.348;2022-09-09T19:39:47;6.07;;;3.07;;
11957;SDS011;6039;52.576;13.348;2022-09-09T19:44:50;3.30;;;2.60;;
11957;SDS011;6039;52.576;13.348;2022-09-09T19:49:54;3.63;;;2.43;;
11957;SDS011;6039;52.576;13.348;2022-09-09T19:54:56;3.30;;;2.50;;
11957;SDS011;6039;52.576;13.348;2022-09-09T20:00:00;5.17;;;2.90;;
11957;SDS011;6039;52.576;13.348;2022-09-09T20:05:05;5.13;;;3.00;;
11957;SDS011;6039;52.576;13.348;2022-09-09T20:10:08;4.93;;;2.70;;
11957;SDS011;6039;52.576;13.348;2022-09-09T20:15:10;5.90;;;2.80;;
11957;SDS011;6039;52.576;13.348;2022-09-09T20:20:15;3.40;;;2.47;;
11957;SDS011;6039;52.576;13.348;2022-09-09T20:25:18;4.77;;;2.23;;
11957;SDS011;6039;52.576;13.348;2022-09-09T20:30:22;2.03;;;1.60;;
11957;SDS011;6039;52.576;13.348;2022-09-09T20:35:26;3.50;;;1.93;;
11957;SDS011;6039;52.576;13.348;2022-09-09T20:40:30;2.10;;;1.70;;
11957;SDS011;6039;52.576;13.348;2022-09-09T20:45:36;2.93;;;1.90;;
11957;SDS011;6039;52.576;13.348;2022-09-09T20:50:40;2.63;;;1.70;;
11957;SDS011;6039;52.576;13.348;2022-09-09T20:55:42;3.63;;;1.30;;
11957;SDS011;6039;52.576;13.348;2022-09-09T21:00:45;3.63;;;1.50;;
11957;SDS011;6039;52.576;13.348;2022-09-09T21:05:49;3.90;;;1.73;;
11957;SDS011;6039;52.576;13.348;2022-09-09T21:10:51;4.50;;;1.90;;
11957;SDS011;6039;52.576;13.348;2022-09-09T21:15:54;2.50;;;1.60;;
11957;SDS011;6039;52.576;13.348;2022-09-09T21:20:58;4.50;;;1.73;;
11957;SDS011;6039;52.576;13.348;2022-09-09T21:26:01;3.10;;;1.97;;
11957;SDS011;6039;52.576;13.348;2022-09-09T21:31:04;3.30;;;2.00;;
11957;SDS011;6039;52.576;13.348;2022-09-09T21:36:10;3.63;;;1.90;;
11957;SDS011;6039;52.576;13.348;2022-09-09T21:41:14;4.10;;;2.07;;
11957;SDS011;6039;52.576;13.348;2022-09-09T21:46:17;6.50;;;1.90;;
11957;SDS011;6039;52.576;13.348;2022-09-09T21:51:21;3.30;;;2.10;;
11957;SDS011;6039;52.576;13.348;2022-09-09T21:56:23;4.10;;;2.30;;
11957;SDS011;6039;52.576;13.348;2022-09-09T22:01:26;2.60;;;1.80;;
11957;SDS011;6039;52.576;13.348;2022-09-09T22:06:33;5.43;;;1.97;;
11957;SDS011;6039;52.576;13.348;2022-09-09T22:11:36;3.47;;;2.00;;
11957;SDS011;6039;52.576;13.348;2022-09-09T22:16:38;3.50;;;1.83;;
11957;SDS011;6039;52.576;13.348;2022-09-09T22:21:42;3.57;;;2.23;;
11957;SDS011;6039;52.576;13.348;2022-09-09T22:26:44;2.87;;;2.00;;
11957;SDS011;6039;52.576;13.348;2022-09-09T22:31:47;4.23;;;1.80;;
11957;SDS011;6039;52.576;13.348;2022-09-09T22:36:53;6.03;;;2.00;;
11957;SDS011;6039;52.576;13.348;2022-09-09T22:41:56;3.20;;;1.87;;
11957;SDS011;6039;52.576;13.348;2022-09-09T22:46:59;3.80;;;2.30;;
11957;SDS011;6039;52.576;13.348;2022-09-09T22:52:03;7.00;;;2.17;;
11957;SDS011;6039;52.576;13.348;2022-09-09T22:57:07;3.33;;;2.10;;
11957;SDS011;6039;52.576;13.348;2022-09-09T23:02:10;3.13;;;1.97;;
11957;SDS011;6039;52.576;13.348;2022-09-09T23:07:14;3.10;;;1.90;;
11957;SDS011;6039;52.576;13.348;2022-09-09T23:12:22;3.10;;;1.90;;
11957;SDS011;6039;52.576;13.348;2022-09-09T23:17:25;4.60;;;1.93;;
11957;SDS011;6039;52.576;13.348;2022-09-09T23:22:30;3.63;;;1.80;;
11957;SDS011;6039;52.576;13.348;2022-09-09T23:27:33;3.50;;;2.13;;
11957;SDS011;6039;52.576;13.348;2022-09-09T23:32:37;3.93;;;2.10;;
11957;SDS011;6039;52.576;13.348;2022-09-09T23:37:41;3.67;;;2.00;;
11957;SDS011;6039;52.576;13.348;2022-09-09T23:42:44;4.80;;;2.20;;
11957;SDS011;6039;52.576;13.348;2022-09-09T23:47:47;3.17;;;2.13;;
11957;SDS011;6039;52.576;13.348;2022-09-09T23:52:50;5.43;;;2.20;;
11957;SDS011;6039;52.576;13.348;2022-09-09T23:57:53;4.90;;;2.40;;
